GMTT/TNG METAR and TAF weather

Enter ICAO airport designator
Station Type Date Time Source
GMTT METAR 2020/09/19 03:30 UTC NOAA

GMTT 190330Z 17004KT 140V220 6000 FEW023 SCT200 20/18 Q1017 NOSIG


Station Type Date Time Source
GMTT Decoded METAR 2020/09/19 03:30 UTC NOAA

Tanger Aerodrome , Morocco (GMTT) 35-44N 005-54W 21M
Sep 18, 2020 - 11:30 PM EDT / 2020.09.19 0330 UTC
Wind: from the S (170 degrees) at 5 MPH (4 KT) (direction variable):0
Visibility: 3 mile(s):0
Sky conditions: partly cloudy
Temperature: 68 F (20 C)
Dew Point: 64 F (18 C)
Relative Humidity: 88%
Pressure (altimeter): 30.03 in. Hg (1017 hPa)
ob: GMTT 190330Z 17004KT 140V220 6000 FEW023 SCT200 20/18 Q1017 NOSIG
cycle: 3

Station Type Date Time Source
GMTT TAF 2020/09/18 18:18 UTC NOAA

TAF GMTT 181700Z 1818/1924 20010KT 9999 SCT016

Example: see airport list